Time;durP1;ratioP1;P1;durP2;ratioP2;P2;SDS_P1;SDS_P2;PMS_P1;PMS_P2;Temp;Humidity;BMP_temperature;BMP_pressure;BME280_temperature;BME280_humidity;BME280_pressure;Samples;Min_cycle;Max_cycle;Signal;HPM_P1;HPM_P2
2021/05/24 00:02:12;;;;;;;5.53;4.03;;;;;;;8.88;72.89;100562.27;1753832;81;21556;-81
2021/05/24 00:04:38;;;;;;;8.43;5.25;;;;;;;8.86;72.64;100567.65;1759642;81;20998;-81
2021/05/24 00:07:06;;;;;;;6.08;4.33;;;;;;;8.87;73.07;100565.86;1759777;81;21014;-81
2021/05/24 00:09:32;;;;;;;9.55;4.87;;;;;;;8.85;73.21;100565.09;1759947;81;21021;-81
2021/05/24 00:12:01;;;;;;;7.80;4.55;;;;;;;8.83;73.37;100561.25;1759674;81;21029;-81
2021/05/24 00:14:28;;;;;;;6.03;4.55;;;;;;;8.81;73.24;100562.28;1750338;81;21059;-81
2021/05/24 00:16:54;;;;;;;6.08;4.65;;;;;;;8.79;73.44;100562.39;1748303;82;21078;-81
2021/05/24 00:19:20;;;;;;;8.28;5.17;;;;;;;8.79;73.15;100564.18;1748658;81;21015;-81
2021/05/24 00:21:47;;;;;;;8.23;5.03;;;;;;;8.78;73.16;100569.89;1748631;82;21565;-80
2021/05/24 00:24:13;;;;;;;7.03;5.00;;;;;;;8.77;73.03;100576.09;1748854;82;21524;-81
2021/05/24 00:26:39;;;;;;;7.35;5.40;;;;;;;8.74;72.95;100568.87;1748496;82;21055;-81
2021/05/24 00:29:05;;;;;;;10.08;5.37;;;;;;;8.71;72.81;100572.52;1748629;82;21154;-81
2021/05/24 00:31:31;;;;;;;8.60;5.67;;;;;;;8.68;72.91;100572.23;1748658;82;21004;-81
2021/05/24 00:33:58;;;;;;;8.30;6.28;;;;;;;8.66;73.05;100565.40;1748706;82;21059;-81
2021/05/24 00:36:24;;;;;;;9.03;6.12;;;;;;;8.63;73.03;100573.47;1748693;82;21082;-81
2021/05/24 00:38:50;;;;;;;9.48;5.65;;;;;;;8.59;73.44;100565.40;1748549;82;21047;-81
2021/05/24 00:41:18;;;;;;;9.50;6.00;;;;;;;8.55;73.41;100559.92;1748775;82;21062;-81
2021/05/24 00:43:44;;;;;;;7.37;6.10;;;;;;;8.52;73.64;100560.95;1748784;82;21079;-81
2021/05/24 00:46:10;;;;;;;6.15;4.90;;;;;;;8.48;73.65;100559.92;1748580;82;21525;-81
2021/05/24 00:48:36;;;;;;;8.03;6.33;;;;;;;8.43;73.61;100554.95;1748530;82;21007;-81
2021/05/24 00:51:02;;;;;;;8.95;5.95;;;;;;;8.38;73.75;100554.36;1752333;82;21006;-81
2021/05/24 00:53:30;;;;;;;8.33;5.50;;;;;;;8.34;73.52;100551.05;1754330;81;20994;-81
2021/05/24 00:55:56;;;;;;;8.80;6.47;;;;;;;8.28;73.90;100546.14;1754532;81;21086;-81
2021/05/24 00:58:23;;;;;;;6.75;5.37;;;;;;;8.24;73.55;100543.33;1754407;82;21010;-81
2021/05/24 01:00:49;;;;;;;7.22;5.58;;;;;;;8.21;73.72;100545.66;1754206;81;21018;-80
2021/05/24 01:03:16;;;;;;;8.45;6.67;;;;;;;8.18;73.56;100544.53;1748474;82;21545;-80
2021/05/24 01:05:44;;;;;;;10.95;6.75;;;;;;;8.13;74.07;100541.34;1748709;82;21031;-80
2021/05/24 01:08:14;;;;;;;11.50;7.28;;;;;;;8.08;73.83;100542.07;1748548;82;21070;-80
2021/05/24 01:10:41;;;;;;;9.05;7.15;;;;;;;8.03;73.99;100540.20;1748521;82;21039;-80
2021/05/24 01:13:10;;;;;;;8.98;6.47;;;;;;;7.99;73.62;100542.16;1748496;82;21026;-80
2021/05/24 01:15:37;;;;;;;8.13;6.42;;;;;;;7.99;73.62;100542.60;1748480;82;21071;-80
2021/05/24 01:18:04;;;;;;;12.65;7.33;;;;;;;7.98;73.93;100537.81;1748523;82;21050;-80
2021/05/24 01:20:30;;;;;;;10.08;7.67;;;;;;;7.96;74.02;100530.95;1748572;82;21648;-80
2021/05/24 01:25:26;;;;;;;11.97;7.25;;;;;;;7.89;74.38;100534.41;1748716;82;21066;-80
2021/05/24 01:27:52;;;;;;;8.75;6.95;;;;;;;7.86;74.51;100522.76;1749156;81;21010;-80
2021/05/24 01:30:20;;;;;;;8.75;5.97;;;;;;;7.82;74.55;100525.19;1748175;82;21099;-80
2021/05/24 01:32:47;;;;;;;8.28;6.33;;;;;;;7.80;74.20;100529.70;1747983;82;21066;-80
2021/05/24 01:35:13;;;;;;;9.03;6.60;;;;;;;7.77;74.53;100532.51;1748151;82;21011;-80
2021/05/24 01:37:40;;;;;;;9.05;6.40;;;;;;;7.75;74.56;100529.11;1748100;82;21070;-80
2021/05/24 01:40:08;;;;;;;8.50;6.17;;;;;;;7.72;74.61;100529.29;1748364;82;21151;-80
2021/05/24 01:42:34;;;;;;;11.28;7.45;;;;;;;7.69;74.56;100529.46;1748528;82;21046;-80
2021/05/24 01:45:01;;;;;;;10.50;6.70;;;;;;;7.65;74.96;100520.08;1755317;81;21548;-80
2021/05/24 01:47:27;;;;;;;8.53;6.78;;;;;;;7.62;74.85;100521.09;1754249;81;21014;-80
2021/05/24 01:49:53;;;;;;;10.03;6.67;;;;;;;7.58;75.19;100515.64;1754657;81;21025;-80
2021/05/24 01:52:19;;;;;;;9.43;6.00;;;;;;;7.54;74.97;100515.91;1754441;81;21057;-80
2021/05/24 01:54:47;;;;;;;10.40;6.20;;;;;;;7.50;75.29;100516.52;1754666;81;21041;-80
2021/05/24 01:57:14;;;;;;;9.90;7.15;;;;;;;7.46;75.14;100515.02;1754231;82;20982;-80
2021/05/24 01:59:41;;;;;;;11.20;7.17;;;;;;;7.43;75.14;100512.09;1754443;82;21006;-80
2021/05/24 02:02:07;;;;;;;11.63;7.90;;;;;;;7.39;75.02;100504.02;1754373;82;21504;-80
2021/05/24 02:04:35;;;;;;;10.70;8.18;;;;;;;7.39;74.88;100509.73;1752868;81;21031;-80
2021/05/24 02:07:02;;;;;;;11.05;8.93;;;;;;;7.39;74.93;100513.67;1748528;82;21095;-80
2021/05/24 02:09:28;;;;;;;12.63;8.48;;;;;;;7.37;75.18;100507.66;1748851;82;21031;-80
2021/05/24 02:11:55;;;;;;;10.30;7.58;;;;;;;7.33;74.91;100509.60;1748629;82;21043;-80
2021/05/24 02:14:21;;;;;;;10.10;8.03;;;;;;;7.33;74.92;100516.64;1748946;82;21509;-80
2021/05/24 02:16:49;;;;;;;12.60;7.35;;;;;;;7.32;74.83;100532.86;1748668;82;21074;-80
2021/05/24 02:19:18;;;;;;;10.95;7.53;;;;;;;7.27;75.42;100530.50;1748743;82;21023;-80
2021/05/24 02:21:44;;;;;;;9.85;7.78;;;;;;;7.25;75.18;100539.39;1748564;82;21082;-80
2021/05/24 02:24:12;;;;;;;11.12;7.87;;;;;;;7.23;75.42;100538.61;1748841;82;21035;-80
2021/05/24 02:26:41;;;;;;;13.85;7.60;;;;;;;7.20;75.82;100538.31;1748602;82;21071;-80
2021/05/24 02:29:08;;;;;;;11.08;8.25;;;;;;;7.17;76.06;100533.70;1748805;82;21099;-80
2021/05/24 02:31:36;;;;;;;11.48;8.55;;;;;;;7.10;76.31;100523.16;1753792;82;21022;-80
2021/05/24 02:34:05;;;;;;;11.43;7.72;;;;;;;7.05;76.21;100524.74;1754501;81;21077;-80
2021/05/24 02:36:32;;;;;;;13.78;8.23;;;;;;;7.03;75.91;100528.74;1754316;81;20995;-80
2021/05/24 02:38:59;;;;;;;16.57;7.60;;;;;;;7.01;76.49;100531.09;1754521;81;21006;-80
2021/05/24 02:41:25;;;;;;;10.25;7.28;;;;;;;6.97;76.51;100530.39;1753314;81;21019;-81
2021/05/24 02:43:51;;;;;;;8.93;7.12;;;;;;;6.95;75.75;100543.23;1748759;82;21012;-81
2021/05/24 02:46:17;;;;;;;10.13;7.05;;;;;;;6.95;76.04;100555.03;1748763;81;21075;-81
2021/05/24 02:48:43;;;;;;;9.78;7.60;;;;;;;6.93;75.91;100558.19;1759539;81;21144;-81
2021/05/24 02:51:09;;;;;;;10.05;7.03;;;;;;;6.91;76.34;100554.36;1759929;81;20986;-81
2021/05/24 02:53:35;;;;;;;9.63;6.15;;;;;;;6.88;76.65;100548.39;1759814;81;21615;-81
2021/05/24 02:56:01;;;;;;;8.75;6.47;;;;;;;6.85;76.77;100544.19;1759891;81;21062;-81
2021/05/24 02:58:27;;;;;;;9.48;7.08;;;;;;;6.82;77.01;100544.34;1760040;81;21010;-81
2021/05/24 03:00:53;;;;;;;15.35;8.23;;;;;;;6.80;76.33;100548.81;1759968;81;21069;-81
2021/05/24 03:03:22;;;;;;;9.73;5.90;;;;;;;6.80;76.17;100549.66;1759720;81;20974;-81
2021/05/24 03:05:47;;;;;;;9.28;6.30;;;;;;;6.79;76.74;100544.04;1759823;81;21176;-81
2021/05/24 03:08:13;;;;;;;8.55;5.42;;;;;;;6.76;76.64;100542.05;1759802;81;21041;-80
2021/05/24 03:10:41;;;;;;;8.45;4.58;;;;;;;6.75;76.54;100538.58;1760049;81;21074;-80
2021/05/24 03:13:08;;;;;;;6.40;4.85;;;;;;;6.75;76.51;100545.14;1759726;81;21042;-80
2021/05/24 03:15:35;;;;;;;6.35;4.92;;;;;;;6.76;76.93;100544.67;1748670;81;21094;-80
2021/05/24 03:18:01;;;;;;;7.92;4.42;;;;;;;6.74;77.05;100545.20;1748512;81;21042;-80
2021/05/24 03:20:27;;;;;;;8.13;4.47;;;;;;;6.71;77.01;100540.12;1724742;83;21607;-80
2021/05/24 03:22:53;;;;;;;8.13;4.90;;;;;;;6.72;76.73;100543.15;1734420;82;20991;-80
2021/05/24 03:25:20;;;;;;;6.53;3.98;;;;;;;6.72;76.78;100545.30;1748772;82;21047;-80
2021/05/24 03:27:47;;;;;;;7.97;4.95;;;;;;;6.71;76.75;100540.12;1748769;82;21058;-80
2021/05/24 03:30:15;;;;;;;6.60;4.75;;;;;;;6.72;76.55;100538.74;1748811;82;21078;-80
2021/05/24 03:32:41;;;;;;;7.45;4.80;;;;;;;6.71;76.37;100533.13;1748868;82;21023;-80
2021/05/24 03:35:09;;;;;;;9.28;4.95;;;;;;;6.73;76.51;100529.09;1748916;82;21026;-80
2021/05/24 03:37:35;;;;;;;7.25;5.00;;;;;;;6.73;76.90;100531.72;1748446;82;21079;-80
2021/05/24 03:40:03;;;;;;;7.55;5.55;;;;;;;6.72;77.16;100525.63;1748786;82;21042;-80
2021/05/24 03:42:29;;;;;;;7.60;5.60;;;;;;;6.73;77.31;100533.03;1748606;82;21059;-80
2021/05/24 03:44:55;;;;;;;7.92;5.35;;;;;;;6.75;77.45;100530.72;1748892;82;21023;-80
2021/05/24 03:47:21;;;;;;;8.08;5.90;;;;;;;6.75;77.39;100533.34;1748955;81;21625;-80
2021/05/24 03:49:47;;;;;;;8.15;6.42;;;;;;;6.76;77.51;100531.56;1748820;82;21007;-80
2021/05/24 03:52:18;;;;;;;9.63;6.37;;;;;;;6.75;77.30;100531.19;1748594;82;21008;-80
2021/05/24 03:54:44;;;;;;;9.23;6.97;;;;;;;6.77;77.58;100530.15;1748872;82;21040;-80
2021/05/24 03:57:11;;;;;;;8.05;6.53;;;;;;;6.78;77.90;100525.78;1758055;81;21029;-80
2021/05/24 03:59:38;;;;;;;9.03;6.35;;;;;;;6.81;77.87;100520.34;1759817;81;21579;-80
2021/05/24 04:02:04;;;;;;;7.20;6.42;;;;;;;6.83;77.73;100525.05;1759856;81;21611;-80
2021/05/24 04:04:31;;;;;;;7.78;6.25;;;;;;;6.85;77.81;100522.36;1760020;81;21044;-80
2021/05/24 04:06:58;;;;;;;7.55;6.67;;;;;;;6.86;77.97;100518.80;1759963;81;21489;-80
2021/05/24 04:09:25;;;;;;;7.50;5.87;;;;;;;6.87;78.14;100526.56;1757312;81;21849;-80
2021/05/24 04:11:51;;;;;;;7.90;5.67;;;;;;;6.89;78.12;100529.97;1758709;81;21062;-80
2021/05/24 04:14:17;;;;;;;8.15;5.90;;;;;;;6.91;78.65;100535.12;1754575;82;21034;-80
2021/05/24 04:16:45;;;;;;;7.22;6.42;;;;;;;6.93;78.36;100538.05;1754302;82;20994;-80
2021/05/24 04:19:12;;;;;;;11.20;6.42;;;;;;;6.94;78.64;100539.77;1750771;81;21616;-80
2021/05/24 04:21:43;;;;;;;7.22;5.37;;;;;;;6.97;78.96;100542.66;1748897;81;21043;-80
2021/05/24 04:24:11;;;;;;;6.75;4.65;;;;;;;6.99;78.96;100552.15;1749999;81;21011;-80
2021/05/24 04:26:40;;;;;;;8.75;5.30;;;;;;;7.04;79.23;100548.83;1748476;82;21023;-81
2021/05/24 04:29:06;;;;;;;8.28;5.35;;;;;;;7.08;79.35;100557.38;1748802;82;21031;-81
2021/05/24 04:31:35;;;;;;;6.60;5.17;;;;;;;7.13;79.29;100547.92;1748537;82;22388;-81
2021/05/24 04:34:01;;;;;;;7.15;4.58;;;;;;;7.17;79.70;100547.69;1753109;81;21018;-81
2021/05/24 04:36:27;;;;;;;8.75;5.58;;;;;;;7.23;79.67;100551.73;1754496;81;21060;-81
2021/05/24 04:38:53;;;;;;;6.90;5.47;;;;;;;7.27;80.04;100557.19;1759707;81;21037;-80
2021/05/24 04:41:19;;;;;;;7.15;4.60;;;;;;;7.34;80.55;100562.51;1759459;81;21065;-80
2021/05/24 04:43:45;;;;;;;5.17;3.98;;;;;;;7.39;80.62;100561.77;1760842;81;21057;-81
2021/05/24 04:46:11;;;;;;;5.87;4.60;;;;;;;7.45;80.61;100567.16;1748635;81;21035;-80
2021/05/24 04:48:37;;;;;;;8.40;5.05;;;;;;;7.50;80.50;100568.60;1747879;82;21042;-81
2021/05/24 04:51:04;;;;;;;6.75;4.22;;;;;;;7.58;80.48;100569.95;1748367;82;20975;-81
2021/05/24 04:53:31;;;;;;;9.08;5.37;;;;;;;7.64;80.80;100574.39;1747875;82;20983;-81
2021/05/24 04:55:57;;;;;;;7.85;4.30;;;;;;;7.69;80.73;100572.33;1748089;82;21034;-81
2021/05/24 04:58:23;;;;;;;7.33;4.62;;;;;;;7.77;80.83;100575.02;1747775;82;21026;-81
2021/05/24 05:00:49;;;;;;;6.85;4.35;;;;;;;7.83;80.98;100574.64;1748136;82;21016;-81
2021/05/24 05:03:16;;;;;;;7.45;5.00;;;;;;;7.89;80.78;100575.13;1747967;82;21552;-81
2021/05/24 05:05:42;;;;;;;9.35;4.70;;;;;;;7.95;80.76;100574.78;1748072;82;21003;-81
2021/05/24 05:08:09;;;;;;;4.42;3.92;;;;;;;8.02;81.10;100575.75;1748150;82;21577;-80
2021/05/24 05:10:36;;;;;;;8.85;4.30;;;;;;;8.09;81.03;100571.82;1716816;82;21624;-81
2021/05/24 05:13:02;;;;;;;5.25;4.22;;;;;;;8.17;81.26;100581.44;1748287;82;21027;-81
2021/05/24 05:15:29;;;;;;;7.45;4.70;;;;;;;8.24;81.03;100577.50;1748100;82;21054;-80
2021/05/24 05:17:55;;;;;;;5.10;3.77;;;;;;;8.33;81.68;100577.44;1748140;82;21063;-81
2021/05/24 05:20:21;;;;;;;5.97;4.03;;;;;;;8.40;81.30;100567.80;1748145;82;21046;-81
2021/05/24 05:22:47;;;;;;;5.87;3.80;;;;;;;8.51;81.42;100567.62;1748155;82;21054;-81
2021/05/24 05:25:14;;;;;;;4.10;3.60;;;;;;;8.59;81.33;100573.29;1748152;82;21518;-81
2021/05/24 05:27:40;;;;;;;5.10;3.20;;;;;;;8.67;81.52;100568.39;1748160;82;21090;-81
2021/05/24 05:30:07;;;;;;;5.78;3.62;;;;;;;8.76;81.49;100570.47;1748152;82;21074;-81
2021/05/24 05:32:34;;;;;;;8.68;3.40;;;;;;;8.86;81.26;100573.39;1747835;82;21086;-81
2021/05/24 05:35:00;;;;;;;4.78;3.17;;;;;;;8.96;81.39;100579.77;1748214;82;20999;-81
2021/05/24 05:37:26;;;;;;;6.08;3.08;;;;;;;9.08;81.48;100578.15;1747966;82;21023;-82
2021/05/24 05:39:55;;;;;;;5.80;3.40;;;;;;;9.18;81.50;100577.97;1748246;82;21016;-81
2021/05/24 05:42:20;;;;;;;6.15;2.98;;;;;;;9.30;81.48;100584.23;1747466;82;21083;-81
2021/05/24 05:44:48;;;;;;;5.75;2.98;;;;;;;9.42;81.49;100568.14;1748144;82;21050;-81
2021/05/24 05:47:14;;;;;;;4.28;2.77;;;;;;;9.55;81.24;100573.00;1752594;81;21017;-81
2021/05/24 05:49:40;;;;;;;3.33;2.50;;;;;;;9.67;80.75;100582.72;1754617;81;21580;-77
2021/05/24 05:52:06;;;;;;;5.47;2.87;;;;;;;9.79;80.65;100587.20;1748862;82;21046;-78
2021/05/24 05:54:33;;;;;;;4.10;2.75;;;;;;;9.92;80.71;100579.82;1748624;82;21051;-81
2021/05/24 05:56:59;;;;;;;3.95;2.58;;;;;;;10.01;80.48;100585.81;1748426;82;21090;-80
2021/05/24 05:59:25;;;;;;;5.47;2.42;;;;;;;10.12;80.53;100585.93;1749603;81;21600;-81
2021/05/24 06:01:51;;;;;;;5.42;2.77;;;;;;;10.24;79.98;100580.33;1752868;81;21062;-80
2021/05/24 06:04:16;;;;;;;5.30;2.42;;;;;;;10.36;80.31;100580.83;1759637;81;21034;-80
2021/05/24 06:06:42;;;;;;;2.92;2.25;;;;;;;10.48;79.70;100590.55;1759460;81;20998;-80
2021/05/24 06:09:08;;;;;;;3.83;2.30;;;;;;;10.60;79.80;100592.01;1760001;81;21002;-80
2021/05/24 06:11:34;;;;;;;3.62;2.08;;;;;;;10.70;79.92;100590.42;1757710;81;21066;-80
2021/05/24 06:14:00;;;;;;;3.02;1.72;;;;;;;10.83;79.68;100595.70;1754598;81;21082;-80
2021/05/24 06:16:26;;;;;;;3.12;1.55;;;;;;;10.95;78.73;100593.51;1754497;82;21528;-79
2021/05/24 06:18:52;;;;;;;4.45;2.12;;;;;;;11.06;78.32;100600.22;1754343;81;21082;-80
2021/05/24 06:21:18;;;;;;;3.75;2.47;;;;;;;11.19;78.53;100592.28;1754605;81;21524;-80
2021/05/24 06:23:46;;;;;;;4.53;2.55;;;;;;;11.32;78.85;100592.22;1758175;81;21101;-81
2021/05/24 06:26:13;;;;;;;5.95;2.65;;;;;;;11.45;78.83;100597.86;1759603;81;21727;-80
2021/05/24 06:28:39;;;;;;;3.50;1.60;;;;;;;11.60;78.05;100597.22;1753182;82;21516;-81
2021/05/24 06:31:05;;;;;;;2.47;1.65;;;;;;;11.70;77.77;100598.72;1754461;82;21050;-79
2021/05/24 06:33:31;;;;;;;4.58;1.85;;;;;;;11.81;77.19;100605.86;1754319;81;21050;-80
2021/05/24 06:35:57;;;;;;;5.25;2.52;;;;;;;11.90;76.54;100607.38;1754433;81;21038;-80
2021/05/24 06:38:23;;;;;;;5.90;2.45;;;;;;;12.01;76.30;100602.64;1753851;82;21042;-79
2021/05/24 06:40:49;;;;;;;6.58;3.70;;;;;;;12.12;76.18;100599.19;1754313;81;21018;-80
2021/05/24 06:43:15;;;;;;;10.50;4.33;;;;;;;12.20;76.22;100608.22;1754527;81;21106;-80
2021/05/24 06:45:41;;;;;;;7.55;2.27;;;;;;;12.29;75.61;100609.34;1755809;81;21552;-80
2021/05/24 06:48:08;;;;;;;2.85;1.60;;;;;;;12.37;75.55;100610.08;1742926;81;21093;-80
2021/05/24 06:50:35;;;;;;;5.67;3.52;;;;;;;12.46;75.38;100602.77;1751020;81;21038;-80
2021/05/24 06:53:04;;;;;;;9.88;3.87;;;;;;;12.56;75.31;100606.88;1756441;81;21062;-80
2021/05/24 06:55:30;;;;;;;4.80;2.30;;;;;;;12.64;74.57;100611.13;1723202;81;21594;-80
2021/05/24 06:57:56;;;;;;;3.33;1.47;;;;;;;12.72;74.16;100614.02;1749345;81;21033;-80
2021/05/24 07:00:22;;;;;;;2.33;1.40;;;;;;;12.81;73.74;100612.47;1771662;81;21025;-79
2021/05/24 07:02:48;;;;;;;2.60;1.30;;;;;;;12.88;73.02;100613.67;1752238;81;20979;-80
2021/05/24 07:05:14;;;;;;;6.60;2.95;;;;;;;12.94;73.53;100615.86;1747853;81;21033;-80
2021/05/24 07:07:41;;;;;;;5.20;2.33;;;;;;;13.01;73.72;100608.27;1750851;81;21000;-80
2021/05/24 07:10:09;;;;;;;7.37;2.00;;;;;;;13.09;73.05;100608.02;1752600;81;21015;-80
2021/05/24 07:12:35;;;;;;;10.28;3.52;;;;;;;13.17;73.68;100613.22;1751717;81;21042;-80
2021/05/24 07:15:03;;;;;;;5.42;1.80;;;;;;;13.26;72.93;100612.50;1752871;81;21060;-81
2021/05/24 07:17:30;;;;;;;2.42;1.32;;;;;;;13.33;72.74;100602.63;1756534;81;21453;-80
2021/05/24 07:19:56;;;;;;;3.00;1.27;;;;;;;13.43;72.62;100601.41;1757740;81;21005;-80
2021/05/24 07:22:23;;;;;;;3.45;1.47;;;;;;;13.49;72.23;100598.28;1724837;82;21584;-81
2021/05/24 07:24:49;;;;;;;1.52;0.98;;;;;;;13.57;72.17;100588.37;1753063;81;21034;-80
2021/05/24 07:27:15;;;;;;;3.05;1.25;;;;;;;13.65;72.03;100587.73;1731563;82;21043;-80
2021/05/24 07:29:41;;;;;;;2.40;1.07;;;;;;;13.73;71.80;100586.16;1734194;81;21109;-81
2021/05/24 07:32:10;;;;;;;4.35;1.47;;;;;;;13.83;71.47;100584.92;1754232;81;21361;-81
2021/05/24 07:34:35;;;;;;;3.90;2.17;;;;;;;13.92;71.42;100576.67;1750398;81;21067;-81
2021/05/24 07:37:01;;;;;;;4.28;1.85;;;;;;;14.00;70.74;100580.38;1748141;82;21549;-81
2021/05/24 07:39:27;;;;;;;3.87;1.90;;;;;;;14.08;71.39;100579.73;1752727;81;21611;-81
2021/05/24 07:41:53;;;;;;;3.98;1.40;;;;;;;14.16;70.71;100584.42;1738051;81;21033;-80
2021/05/24 07:44:19;;;;;;;3.10;1.37;;;;;;;14.22;70.22;100579.44;1738798;82;21067;-81
2021/05/24 07:46:45;;;;;;;2.25;0.98;;;;;;;14.31;69.90;100575.16;1746445;81;21039;-81
2021/05/24 07:49:11;;;;;;;2.40;1.27;;;;;;;14.39;69.36;100573.20;1751693;81;21053;-81
2021/05/24 07:51:37;;;;;;;3.22;1.35;;;;;;;14.44;69.08;100578.95;1753755;81;21011;-81
2021/05/24 07:54:04;;;;;;;1.98;1.30;;;;;;;14.50;69.10;100579.30;1756812;81;21081;-81
2021/05/24 07:56:30;;;;;;;3.12;1.10;;;;;;;14.56;69.38;100567.81;1755251;81;21011;-81
2021/05/24 07:58:56;;;;;;;3.33;1.07;;;;;;;14.64;69.27;100570.64;1745394;81;21645;-81
2021/05/24 08:01:22;;;;;;;1.52;0.93;;;;;;;14.70;68.00;100570.11;1732050;82;21077;-81
2021/05/24 08:03:48;;;;;;;2.20;1.00;;;;;;;14.74;67.77;100565.75;1735671;82;21564;-80
2021/05/24 08:06:14;;;;;;;3.87;1.10;;;;;;;14.78;66.75;100553.88;1752022;82;21030;-81
2021/05/24 08:08:41;;;;;;;4.35;0.88;;;;;;;14.81;66.77;100551.91;1754314;82;21039;-81
2021/05/24 08:11:08;;;;;;;5.70;1.10;;;;;;;14.84;67.10;100542.35;1754458;82;22352;-81
2021/05/24 08:13:35;;;;;;;6.15;1.20;;;;;;;14.92;66.76;100551.34;1752385;81;21012;-81
2021/05/24 08:16:01;;;;;;;4.72;1.10;;;;;;;15.00;66.92;100550.20;1698194;82;21043;-79
2021/05/24 08:18:27;;;;;;;2.20;1.20;;;;;;;14.98;66.68;100526.91;1743660;81;21032;-80
2021/05/24 08:20:53;;;;;;;4.25;0.93;;;;;;;15.15;66.88;100541.84;1731949;81;21056;-81
2021/05/24 08:23:19;;;;;;;5.28;1.00;;;;;;;15.22;66.24;100525.70;1749182;81;21051;-82
2021/05/24 08:25:45;;;;;;;3.83;1.12;;;;;;;15.25;65.31;100515.63;1754979;81;21052;-81
2021/05/24 08:28:11;;;;;;;3.08;0.60;;;;;;;15.32;66.00;100501.30;1740366;82;21719;-82
2021/05/24 08:30:37;;;;;;;3.87;1.10;;;;;;;15.40;66.36;100504.13;1742128;82;21000;-82
2021/05/24 08:33:04;;;;;;;1.85;0.82;;;;;;;15.48;66.14;100504.76;1742230;81;22285;-81
2021/05/24 08:35:30;;;;;;;3.70;1.00;;;;;;;15.55;66.51;100495.73;1742958;81;21060;-81
2021/05/24 08:37:56;;;;;;;2.65;0.98;;;;;;;15.62;65.30;100496.85;1747918;81;21649;-82
2021/05/24 08:40:23;;;;;;;4.60;1.00;;;;;;;15.69;65.35;100507.31;1748142;81;21054;-81
2021/05/24 08:42:50;;;;;;;4.75;1.02;;;;;;;15.75;65.84;100504.09;1739810;82;21131;-82
2021/05/24 08:45:16;;;;;;;1.75;0.68;;;;;;;15.83;65.77;100504.25;1760142;81;21039;-81
2021/05/24 08:47:43;;;;;;;2.42;1.00;;;;;;;15.88;64.71;100508.64;1753613;82;20995;-81
2021/05/24 08:50:12;;;;;;;1.72;1.02;;;;;;;15.92;65.02;100500.72;1751253;82;20994;-82
2021/05/24 08:52:38;;;;;;;3.77;1.40;;;;;;;15.98;64.90;100503.80;1744718;81;21159;-81
2021/05/24 08:55:06;;;;;;;4.60;0.93;;;;;;;16.04;65.23;100500.58;1743764;81;21030;-81
2021/05/24 08:57:37;;;;;;;3.75;0.75;;;;;;;16.12;65.14;100498.03;1741685;81;22356;-81
2021/05/24 09:00:08;;;;;;;3.05;0.80;;;;;;;16.21;64.10;100502.50;1745775;82;21017;-81
2021/05/24 09:02:39;;;;;;;1.65;0.70;;;;;;;16.25;64.34;100511.87;1754284;82;21090;-81
2021/05/24 09:05:09;;;;;;;2.35;0.85;;;;;;;16.33;64.57;100503.19;1749569;82;21081;-82
2021/05/24 09:07:52;;;;;;;10.00;1.42;;;;;;;16.40;64.47;100502.45;1749469;82;21079;-81
2021/05/24 09:10:20;;;;;;;;;;;;;;;16.49;63.29;100498.09;1755981;82;21522;-79
2021/05/24 09:12:46;;;;;;;1.82;1.00;;;;;;;16.60;63.34;100510.38;1749982;82;20221;-78
2021/05/24 09:15:15;;;;;;;2.45;1.05;;;;;;;16.63;62.54;100506.09;1752560;82;21044;-78
2021/05/24 09:17:48;;;;;;;2.05;0.68;;;;;;;16.63;61.36;100504.77;1736938;81;21066;-80
2021/05/24 09:20:22;;;;;;;1.57;0.57;;;;;;;16.65;62.73;100496.15;1751663;82;21036;-81
2021/05/24 09:23:09;;;;;;;1.57;0.85;;;;;;;16.69;61.66;100490.86;1745842;81;21542;-79
2021/05/24 09:26:05;;;;;;;1.25;0.70;;;;;;;16.72;60.96;100486.58;1738781;82;21062;-81
2021/05/24 09:28:48;;;;;;;4.25;0.88;;;;;;;16.74;61.10;100484.59;1733985;82;21047;-82
2021/05/24 09:31:23;;;;;;;3.95;0.85;;;;;;;16.77;60.09;100472.34;1739771;81;21583;-81
2021/05/24 09:33:59;;;;;;;5.75;1.20;;;;;;;16.78;61.22;100463.38;1751005;81;21090;-81
2021/05/24 09:36:27;;;;;;;8.13;1.22;;;;;;;16.83;60.85;100463.75;1736869;82;21536;-81
2021/05/24 09:39:07;;;;;;;6.62;1.27;;;;;;;16.86;60.87;100454.13;1744069;82;21513;-81
2021/05/24 09:41:47;;;;;;;3.27;0.60;;;;;;;16.92;61.12;100457.20;1748022;81;21031;-81
2021/05/24 09:44:22;;;;;;;2.10;1.00;;;;;;;16.96;60.27;100451.41;1742570;81;21054;-81
2021/05/24 09:46:48;;;;;;;12.18;4.47;;;;;;;17.00;59.66;100452.78;1724908;83;21576;-80
2021/05/24 09:49:14;;;;;;;43.80;11.65;;;;;;;17.03;59.28;100445.81;1714844;81;21027;-82
2021/05/24 09:51:45;;;;;;;7.70;3.35;;;;;;;17.07;59.21;100451.69;1747491;81;21640;-79
2021/05/24 09:54:13;;;;;;;6.50;0.72;;;;;;;17.09;58.09;100445.72;1738985;81;21052;-80
2021/05/24 09:56:47;;;;;;;3.00;0.75;;;;;;;17.11;57.93;100455.25;1749550;81;21556;-81
2021/05/24 09:59:16;;;;;;;0.72;0.37;;;;;;;17.12;57.65;100446.75;1741435;82;21117;-82
2021/05/24 10:01:47;;;;;;;3.97;1.00;;;;;;;17.14;57.69;100438.59;1753343;81;21126;-81
2021/05/24 10:04:21;;;;;;;3.45;0.90;;;;;;;17.15;56.71;100438.95;1754000;81;21018;-81
2021/05/24 10:06:48;;;;;;;2.50;0.75;;;;;;;17.21;58.29;100435.19;1754836;81;21066;-80
2021/05/24 10:09:17;;;;;;;1.47;0.75;;;;;;;17.28;57.74;100420.25;1735551;82;21082;-80
2021/05/24 10:11:49;;;;;;;4.33;1.25;;;;;;;17.35;57.64;100421.31;1735158;82;21608;-81
2021/05/24 10:14:18;;;;;;;;;;;;;;;17.41;57.62;100425.20;1732504;82;21069;-80
2021/05/24 10:16:48;;;;;;;1.50;0.70;;;;;;;17.47;57.13;100421.94;1720384;82;20167;-80
2021/05/24 10:19:17;;;;;;;1.70;0.90;;;;;;;17.52;57.33;100423.63;1723996;82;21082;-81
2021/05/24 10:21:46;;;;;;;2.30;0.88;;;;;;;17.57;55.96;100417.81;1734985;82;21592;-82
2021/05/24 10:24:13;;;;;;;0.80;0.57;;;;;;;17.58;57.18;100417.67;1725578;81;21056;-80
2021/05/24 10:26:42;;;;;;;2.58;0.80;;;;;;;17.61;55.74;100414.38;1740753;81;21027;-80
2021/05/24 10:29:11;;;;;;;3.20;0.80;;;;;;;17.58;55.26;100417.67;1744367;81;21065;-80
2021/05/24 10:31:37;;;;;;;2.40;1.10;;;;;;;17.60;55.44;100416.17;1747365;81;21156;-81
2021/05/24 10:34:20;;;;;;;2.45;1.22;;;;;;;17.59;56.27;100419.34;1745342;82;20998;-81
2021/05/24 10:37:17;;;;;;;4.12;1.50;;;;;;;17.61;56.45;100425.05;1736616;82;21031;-80
2021/05/24 10:40:07;;;;;;;5.83;3.08;;;;;;;17.67;56.17;100421.26;1752531;82;21058;-80
2021/05/24 10:42:42;;;;;;;2.15;1.32;;;;;;;17.69;56.09;100421.92;1749184;81;21094;-80
2021/05/24 10:45:25;;;;;;;2.92;1.87;;;;;;;17.75;56.40;100411.13;1750526;82;21066;-80
2021/05/24 10:47:58;;;;;;;4.45;2.52;;;;;;;17.79;56.57;100410.69;1755717;81;21405;-79
2021/05/24 10:50:26;;;;;;;1.77;0.80;;;;;;;17.87;56.20;100405.92;1740107;81;21568;-78
2021/05/24 10:53:10;;;;;;;3.08;1.02;;;;;;;17.91;56.17;100403.77;1742451;82;21056;-78
2021/05/24 10:55:46;;;;;;;3.80;0.80;;;;;;;17.95;54.85;100401.12;1748572;82;21059;-78
2021/05/24 10:58:15;;;;;;;1.95;0.80;;;;;;;18.00;55.28;100394.83;1753260;82;21075;-81
2021/05/24 11:00:58;;;;;;;2.75;0.70;;;;;;;18.02;55.05;100376.80;1755101;81;21321;-81
2021/05/24 11:03:23;;;;;;;2.72;0.80;;;;;;;18.11;54.71;100381.20;1735904;82;22095;-80
2021/05/24 11:06:13;;;;;;;1.27;0.50;;;;;;;18.21;55.04;100386.42;1746882;82;21064;-80
2021/05/24 11:08:43;;;;;;;3.12;0.80;;;;;;;18.23;55.83;100369.75;1656226;84;21102;-80
2021/05/24 11:11:24;;;;;;;1.57;1.20;;;;;;;18.50;54.58;100380.71;1700215;83;21082;-81
2021/05/24 11:14:08;;;;;;;3.20;0.65;;;;;;;18.61;52.97;100367.04;1731840;82;21050;-79
2021/05/24 11:16:37;;;;;;;3.02;0.62;;;;;;;18.74;53.68;100367.44;1697316;83;21049;-79
2021/05/24 11:19:14;;;;;;;2.90;0.60;;;;;;;18.91;53.37;100363.47;1735455;82;21067;-81
2021/05/24 11:21:52;;;;;;;1.10;0.45;;;;;;;18.99;53.50;100368.84;1747434;81;21530;-81
2021/05/24 11:24:33;;;;;;;1.55;0.50;;;;;;;19.06;53.18;100367.18;1750144;81;21098;-80
2021/05/24 11:27:11;;;;;;;2.67;0.80;;;;;;;19.10;52.70;100363.67;1738069;81;21116;-80
2021/05/24 11:29:40;;;;;;;1.60;0.68;;;;;;;19.15;53.83;100351.48;1692213;83;21090;-79
2021/05/24 11:32:27;;;;;;;1.40;0.75;;;;;;;19.27;52.65;100347.12;1728451;81;21054;-78
2021/05/24 11:34:53;;;;;;;2.27;0.57;;;;;;;19.35;52.37;100348.48;1746470;82;21640;-81
2021/05/24 11:37:21;;;;;;;1.92;0.70;;;;;;;19.49;53.23;100343.78;1740649;81;21044;-80